createdAt,value
2023-03-12T00:01:30.390Z,7.53
2023-03-12T00:03:57.243Z,5.23
2023-03-12T00:06:23.827Z,5.50
2023-03-12T00:08:50.537Z,6.37
2023-03-12T00:11:19.483Z,4.73
2023-03-12T00:13:50.255Z,6.50
2023-03-12T00:16:18.420Z,5.00
2023-03-12T00:18:48.207Z,6.63
2023-03-12T00:21:14.748Z,6.77
2023-03-12T00:23:41.397Z,8.53
2023-03-12T00:26:13.289Z,6.73
2023-03-12T00:28:40.323Z,5.50
2023-03-12T00:31:14.679Z,7.47
2023-03-12T00:33:42.937Z,6.43
2023-03-12T00:36:09.764Z,5.67
2023-03-12T00:38:36.325Z,6.17
2023-03-12T00:41:02.983Z,6.17
2023-03-12T00:43:29.514Z,7.33
2023-03-12T00:45:56.067Z,4.23
2023-03-12T00:48:22.668Z,4.50
2023-03-12T00:50:50.628Z,7.17
2023-03-12T00:53:17.202Z,6.07
2023-03-12T00:55:43.792Z,5.40
2023-03-12T00:58:10.333Z,6.37
2023-03-12T01:00:36.974Z,7.87
2023-03-12T01:03:04.112Z,7.87
2023-03-12T01:05:30.742Z,6.17
2023-03-12T01:07:58.708Z,5.50
2023-03-12T01:10:25.298Z,6.53
2023-03-12T01:12:51.902Z,6.60
2023-03-12T01:15:18.467Z,5.10
2023-03-12T01:17:45.013Z,4.87
2023-03-12T01:20:12.272Z,9.53
2023-03-12T01:22:40.199Z,5.20
2023-03-12T01:25:09.072Z,5.77
2023-03-12T01:27:35.694Z,7.03
2023-03-12T01:30:03.558Z,5.77
2023-03-12T01:32:30.136Z,6.60
2023-03-12T01:34:58.290Z,5.97
2023-03-12T01:37:25.024Z,6.50
2023-03-12T01:39:51.573Z,5.10
2023-03-12T01:42:19.510Z,6.17
2023-03-12T01:44:51.129Z,5.50
2023-03-12T01:47:17.672Z,4.13
2023-03-12T01:49:45.233Z,3.67
2023-03-12T01:52:15.000Z,3.80
2023-03-12T01:54:44.970Z,4.33
2023-03-12T01:57:14.611Z,5.43
2023-03-12T01:59:46.440Z,6.07
2023-03-12T02:02:14.846Z,3.53
2023-03-12T02:04:43.537Z,4.07
2023-03-12T02:07:12.362Z,3.23
2023-03-12T02:09:43.603Z,4.07
2023-03-12T02:12:10.632Z,6.37
2023-03-12T02:14:37.820Z,5.17
2023-03-12T02:17:06.488Z,3.90
2023-03-12T02:19:41.486Z,3.10
2023-03-12T02:22:08.971Z,3.93
2023-03-12T02:24:39.414Z,4.30
2023-03-12T02:27:09.466Z,4.93
2023-03-12T02:29:38.563Z,5.30
2023-03-12T02:32:07.815Z,5.50
2023-03-12T02:34:34.403Z,4.03
2023-03-12T02:37:00.940Z,4.03
2023-03-12T02:39:27.510Z,4.30
2023-03-12T02:41:56.274Z,5.37
2023-03-12T02:44:26.589Z,5.87
2023-03-12T02:46:54.528Z,5.63
2023-03-12T02:49:23.675Z,4.77
2023-03-12T02:51:50.354Z,4.80
2023-03-12T02:54:18.928Z,4.83
2023-03-12T02:56:45.880Z,4.57
2023-03-12T02:59:13.434Z,3.97
2023-03-12T03:01:42.029Z,3.63
2023-03-12T03:04:10.544Z,3.33
2023-03-12T03:06:39.327Z,4.43
2023-03-12T03:09:06.638Z,3.13
2023-03-12T03:11:33.468Z,2.97
2023-03-12T03:14:00.041Z,3.40
2023-03-12T03:16:26.592Z,4.00
2023-03-12T03:18:54.537Z,3.10
2023-03-12T03:21:21.131Z,3.83
2023-03-12T03:23:49.105Z,4.67
2023-03-12T03:26:18.547Z,3.00
2023-03-12T03:28:45.321Z,2.97
2023-03-12T03:31:12.461Z,3.00
2023-03-12T03:33:39.917Z,4.90
2023-03-12T03:36:10.103Z,4.40
2023-03-12T03:38:36.941Z,5.20
2023-03-12T03:41:03.874Z,3.67
2023-03-12T03:43:30.409Z,3.10
2023-03-12T03:45:57.995Z,4.10
2023-03-12T03:48:24.733Z,4.30
2023-03-12T03:50:51.304Z,3.57
2023-03-12T03:53:20.004Z,4.10
2023-03-12T03:55:46.878Z,4.07
2023-03-12T03:58:13.998Z,3.73
2023-03-12T04:00:40.588Z,5.77
2023-03-12T04:03:07.187Z,4.33
2023-03-12T04:05:33.874Z,4.90
2023-03-12T04:08:00.510Z,4.53
2023-03-12T04:10:29.150Z,4.83
2023-03-12T04:12:56.262Z,4.47
2023-03-12T04:15:22.818Z,3.57
2023-03-12T04:17:49.615Z,4.00
2023-03-12T04:20:16.529Z,3.47
2023-03-12T04:22:43.073Z,3.33
2023-03-12T04:25:09.788Z,3.60
2023-03-12T04:27:37.768Z,3.73
2023-03-12T04:30:04.907Z,3.20
2023-03-12T04:32:31.468Z,2.77
2023-03-12T04:34:58.029Z,3.70
2023-03-12T04:37:24.614Z,5.77
2023-03-12T04:39:51.197Z,3.10
2023-03-12T04:42:17.724Z,2.73
2023-03-12T04:44:45.655Z,2.47
2023-03-12T04:47:12.208Z,4.17
2023-03-12T04:49:39.001Z,3.50
2023-03-12T04:52:06.344Z,4.10
2023-03-12T04:54:32.933Z,4.77
2023-03-12T04:56:59.464Z,3.60
2023-03-12T04:59:26.029Z,5.73
2023-03-12T05:01:53.999Z,3.73
2023-03-12T05:04:20.527Z,4.03
2023-03-12T05:06:47.084Z,4.40
2023-03-12T05:09:13.674Z,5.50
2023-03-12T05:11:40.234Z,4.00
2023-03-12T05:14:06.798Z,4.97
2023-03-12T05:16:33.486Z,3.07
2023-03-12T05:19:01.426Z,2.60
2023-03-12T05:21:28.264Z,5.03
2023-03-12T05:23:54.860Z,3.53
2023-03-12T05:26:23.804Z,3.43
2023-03-12T05:28:50.600Z,2.87
2023-03-12T05:31:17.525Z,3.50
2023-03-12T05:33:44.553Z,2.47
2023-03-12T05:36:13.273Z,2.43
2023-03-12T05:38:41.382Z,3.33
2023-03-12T05:41:09.634Z,4.10
2023-03-12T05:43:36.310Z,4.30
2023-03-12T05:46:04.554Z,2.80
2023-03-12T05:48:31.755Z,2.93
2023-03-12T05:50:58.371Z,3.80
2023-03-12T05:53:27.045Z,3.00
2023-03-12T05:55:53.587Z,4.00
2023-03-12T05:58:20.416Z,3.10
2023-03-12T06:00:47.009Z,2.13
2023-03-12T06:03:13.739Z,2.70
2023-03-12T06:05:40.503Z,3.23
2023-03-12T06:08:07.069Z,2.63
2023-03-12T06:10:37.487Z,4.03
2023-03-12T06:13:04.049Z,3.77
2023-03-12T06:15:30.631Z,2.83
2023-03-12T06:17:57.217Z,2.87
2023-03-12T06:20:23.850Z,2.93
2023-03-12T06:22:50.384Z,2.47
2023-03-12T06:25:17.016Z,4.23
2023-03-12T06:27:44.953Z,3.13
2023-03-12T06:30:12.535Z,3.00
2023-03-12T06:32:39.118Z,3.20
2023-03-12T06:35:06.293Z,2.40
2023-03-12T06:37:32.876Z,3.27
2023-03-12T06:39:59.455Z,3.30
2023-03-12T06:42:26.036Z,3.20
2023-03-12T06:44:53.951Z,3.57
2023-03-12T06:47:20.475Z,2.67
2023-03-12T06:49:47.070Z,4.13
2023-03-12T06:52:13.628Z,6.27
2023-03-12T06:54:40.224Z,4.67
2023-03-12T06:57:06.760Z,3.23
2023-03-12T06:59:33.305Z,4.27
2023-03-12T07:02:01.313Z,3.30
2023-03-12T07:04:28.038Z,4.10
2023-03-12T07:06:54.584Z,3.90
2023-03-12T07:09:21.201Z,2.50
2023-03-12T07:11:47.756Z,2.47
2023-03-12T07:14:14.300Z,4.03
2023-03-12T07:16:40.849Z,4.03
2023-03-12T07:19:08.794Z,3.73
2023-03-12T07:21:35.319Z,4.97
2023-03-12T07:24:01.870Z,3.17
2023-03-12T07:26:28.438Z,3.93
2023-03-12T07:28:54.965Z,2.73
2023-03-12T07:31:21.567Z,3.47
2023-03-12T07:33:48.285Z,3.23
2023-03-12T07:36:16.390Z,3.30
2023-03-12T07:38:43.033Z,2.90
2023-03-12T07:41:09.612Z,2.90
2023-03-12T07:43:36.233Z,3.53
2023-03-12T07:46:02.908Z,5.63
2023-03-12T07:48:29.519Z,3.53
2023-03-12T07:50:56.077Z,2.87
2023-03-12T07:53:24.041Z,4.57
2023-03-12T07:55:50.708Z,5.13
2023-03-12T07:58:17.821Z,3.80
2023-03-12T08:00:44.773Z,4.73
2023-03-12T08:03:11.692Z,3.53
2023-03-12T08:05:38.494Z,4.03
2023-03-12T08:08:05.428Z,3.17
2023-03-12T08:10:33.419Z,3.53
2023-03-12T08:13:00.118Z,5.60
2023-03-12T08:15:26.714Z,4.23
2023-03-12T08:17:53.285Z,6.00
2023-03-12T08:20:20.033Z,3.70
2023-03-12T08:22:46.579Z,4.17
2023-03-12T08:25:13.175Z,4.23
2023-03-12T08:27:41.126Z,3.27
2023-03-12T08:30:09.074Z,5.30
2023-03-12T08:32:35.718Z,3.63
2023-03-12T08:35:02.454Z,3.03
2023-03-12T08:37:29.058Z,2.93
2023-03-12T08:39:55.601Z,3.70
2023-03-12T08:42:22.154Z,3.17
2023-03-12T08:44:50.113Z,5.10
2023-03-12T08:47:16.756Z,6.23
2023-03-12T08:49:43.353Z,7.27
2023-03-12T08:52:09.941Z,7.43
2023-03-12T08:54:36.549Z,6.47
2023-03-12T08:57:03.340Z,6.93
2023-03-12T08:59:29.911Z,4.00
2023-03-12T09:01:57.834Z,3.63
2023-03-12T09:04:24.445Z,4.83
2023-03-12T09:06:51.206Z,4.53
2023-03-12T09:09:17.786Z,6.33
2023-03-12T09:11:44.320Z,4.10
2023-03-12T09:16:58.961Z,3.70
2023-03-12T09:19:25.750Z,4.17
2023-03-12T09:21:52.350Z,3.90
2023-03-12T09:24:18.996Z,3.87
2023-03-12T09:26:45.627Z,4.10
2023-03-12T09:29:12.183Z,4.00
2023-03-12T09:31:38.819Z,3.40
2023-03-12T09:34:06.820Z,3.23
2023-03-12T09:36:33.799Z,3.23
2023-03-12T09:39:00.390Z,4.20
2023-03-12T09:41:29.394Z,4.17
2023-03-12T09:43:59.733Z,5.10
2023-03-12T09:46:30.769Z,5.03
2023-03-12T09:49:01.420Z,5.13
2023-03-12T09:51:35.132Z,8.20
2023-03-12T09:54:03.859Z,9.03
2023-03-12T09:56:30.625Z,6.03
2023-03-12T09:58:57.415Z,5.70
2023-03-12T10:01:34.956Z,5.77
2023-03-12T10:04:09.754Z,7.80
2023-03-12T10:06:44.263Z,7.80
2023-03-12T10:09:24.888Z,4.77
2023-03-12T10:11:58.583Z,4.73
2023-03-12T10:14:37.232Z,5.87
2023-03-12T10:17:24.406Z,5.13
2023-03-12T10:20:06.579Z,4.50
2023-03-12T10:22:48.592Z,4.40
2023-03-12T10:25:23.834Z,5.00
2023-03-12T10:27:50.483Z,3.37
2023-03-12T10:30:19.892Z,4.63
2023-03-12T10:32:50.457Z,5.53
2023-03-12T10:35:21.554Z,5.27
2023-03-12T10:37:53.480Z,3.63
2023-03-12T10:40:23.430Z,6.83
2023-03-12T10:42:50.876Z,4.43
2023-03-12T10:45:33.944Z,4.60
2023-03-12T10:48:04.144Z,4.83
2023-03-12T10:50:32.877Z,5.47
2023-03-12T10:53:21.971Z,3.97
2023-03-12T10:56:06.882Z,3.00
2023-03-12T10:58:36.324Z,3.83
2023-03-12T11:01:05.015Z,3.23
2023-03-12T11:03:32.033Z,4.60
2023-03-12T11:06:00.452Z,5.27
2023-03-12T11:08:30.247Z,3.30
2023-03-12T11:10:58.655Z,3.07
2023-03-12T11:13:28.591Z,3.43
2023-03-12T11:15:57.083Z,3.07
2023-03-12T11:18:34.938Z,3.47
2023-03-12T11:21:18.576Z,3.33
2023-03-12T11:24:03.744Z,3.80
2023-03-12T11:26:33.778Z,3.53
2023-03-12T11:29:04.426Z,4.27
2023-03-12T11:31:35.938Z,3.73
2023-03-12T11:34:05.844Z,4.73
2023-03-12T11:36:43.249Z,3.40
2023-03-12T11:39:20.850Z,4.50
2023-03-12T11:42:02.489Z,4.43
2023-03-12T11:44:41.210Z,5.10
2023-03-12T11:47:19.591Z,5.90
2023-03-12T11:50:08.843Z,5.70
2023-03-12T11:52:47.903Z,5.73
2023-03-12T11:55:26.160Z,6.53
2023-03-12T11:58:06.225Z,7.50
2023-03-12T12:00:41.619Z,6.10
2023-03-12T12:03:34.979Z,4.33
2023-03-12T12:06:05.926Z,4.23
2023-03-12T12:08:49.560Z,3.77
2023-03-12T12:11:26.486Z,3.57
2023-03-12T12:14:04.065Z,2.97
2023-03-12T12:16:52.146Z,3.40
2023-03-12T12:19:33.430Z,3.80
2023-03-12T12:22:12.462Z,2.93
2023-03-12T12:24:54.145Z,3.80
2023-03-12T12:27:26.054Z,2.87
2023-03-12T12:30:04.961Z,2.93
2023-03-12T12:32:47.422Z,2.60
2023-03-12T12:35:25.238Z,3.30
2023-03-12T12:37:54.242Z,2.77
2023-03-12T12:40:25.026Z,2.97
2023-03-12T12:43:23.705Z,2.87
2023-03-12T12:45:52.842Z,3.33
2023-03-12T12:48:22.479Z,3.17
2023-03-12T12:50:51.391Z,2.73
2023-03-12T12:53:23.014Z,3.00
2023-03-12T12:56:03.572Z,3.47
2023-03-12T12:58:57.992Z,3.80
2023-03-12T13:01:27.778Z,4.50
2023-03-12T13:04:00.161Z,4.13
2023-03-12T13:06:28.287Z,3.30
2023-03-12T13:09:00.669Z,3.63
2023-03-12T13:11:38.826Z,5.53
2023-03-12T13:14:20.744Z,4.33
2023-03-12T13:16:48.210Z,3.70
2023-03-12T13:19:27.724Z,3.90
2023-03-12T13:22:09.250Z,3.43
2023-03-12T13:24:45.860Z,4.27
2023-03-12T13:27:19.683Z,3.70
2023-03-12T13:29:47.781Z,4.23
2023-03-12T13:32:37.308Z,4.40
2023-03-12T13:35:27.571Z,5.53
2023-03-12T13:38:00.963Z,6.07
2023-03-12T13:40:38.956Z,5.40
2023-03-12T13:43:11.913Z,5.70
2023-03-12T13:45:55.869Z,5.67
2023-03-12T13:48:24.254Z,4.67
2023-03-12T13:50:54.570Z,6.17
2023-03-12T13:53:25.510Z,10.33
2023-03-12T13:56:01.781Z,11.67
2023-03-12T13:58:28.630Z,8.40
2023-03-12T14:01:00.836Z,7.97
2023-03-12T14:03:29.795Z,6.20
2023-03-12T14:05:59.929Z,7.03
2023-03-12T14:08:49.389Z,5.70
2023-03-12T14:11:30.052Z,17.87
2023-03-12T14:14:20.496Z,16.33
2023-03-12T14:16:51.638Z,12.33
2023-03-12T14:19:22.641Z,12.20
2023-03-12T14:21:50.556Z,9.30
2023-03-12T14:24:25.030Z,6.27
2023-03-12T14:26:52.442Z,6.17
2023-03-12T14:29:22.681Z,4.87
2023-03-12T14:31:54.859Z,5.00
2023-03-12T14:34:23.880Z,5.27
2023-03-12T14:36:58.621Z,5.13
2023-03-12T14:39:32.166Z,4.83
2023-03-12T14:42:00.740Z,4.70
2023-03-12T14:44:29.411Z,5.17
2023-03-12T14:46:58.824Z,5.97
2023-03-12T14:49:25.492Z,5.50
2023-03-12T14:51:52.076Z,5.40
2023-03-12T14:54:20.554Z,5.00
2023-03-12T14:56:47.156Z,4.50
2023-03-12T14:59:22.871Z,4.73
2023-03-12T15:01:49.974Z,4.83
2023-03-12T15:04:20.728Z,4.27
2023-03-12T15:06:49.379Z,10.27
2023-03-12T15:09:18.809Z,5.37
2023-03-12T15:11:52.402Z,6.10
2023-03-12T15:14:19.274Z,4.60
2023-03-12T15:16:46.495Z,6.07
2023-03-12T15:19:14.415Z,5.83
2023-03-12T15:21:42.424Z,6.53
2023-03-12T15:24:12.866Z,4.93
2023-03-12T15:26:40.172Z,8.30
2023-03-12T15:29:19.725Z,10.20
2023-03-12T15:31:48.123Z,9.13
2023-03-12T15:34:28.198Z,6.37
2023-03-12T15:36:56.285Z,7.67
2023-03-12T15:39:26.479Z,4.80
2023-03-12T15:41:54.568Z,5.93
2023-03-12T15:44:23.287Z,6.40
2023-03-12T15:46:52.930Z,6.10
2023-03-12T15:49:23.762Z,6.17
2023-03-12T15:52:07.529Z,4.63
2023-03-12T15:54:34.702Z,4.00
2023-03-12T15:57:22.518Z,4.37
2023-03-12T16:00:16.074Z,6.37
2023-03-12T16:02:48.874Z,7.53
2023-03-12T16:05:15.606Z,6.33
2023-03-12T16:07:43.674Z,6.63
2023-03-12T16:10:14.366Z,6.87
2023-03-12T16:12:41.645Z,7.13
2023-03-12T16:15:13.256Z,5.90
2023-03-12T16:17:39.806Z,5.43
2023-03-12T16:20:09.415Z,5.87
2023-03-12T16:22:35.994Z,6.30
2023-03-12T16:25:04.404Z,5.77
2023-03-12T16:27:32.952Z,7.37
2023-03-12T16:29:59.716Z,6.10
2023-03-12T16:32:26.403Z,5.37
2023-03-12T16:34:53.005Z,7.30
2023-03-12T16:37:19.620Z,9.17
2023-03-12T16:39:46.234Z,8.90
2023-03-12T16:42:16.891Z,7.33
2023-03-12T16:44:46.182Z,11.70
2023-03-12T16:47:13.611Z,10.27
2023-03-12T16:49:40.483Z,10.80
2023-03-12T16:52:17.024Z,8.80
2023-03-12T16:54:43.572Z,9.90
2023-03-12T16:57:20.474Z,14.43
2023-03-12T16:59:47.089Z,15.07
2023-03-12T17:02:16.362Z,10.83
2023-03-12T17:04:43.237Z,9.97
2023-03-12T17:07:09.962Z,12.27
2023-03-12T17:09:36.510Z,18.27
2023-03-12T17:12:03.828Z,16.53
2023-03-12T17:14:31.805Z,15.70
2023-03-12T17:16:58.486Z,15.17
2023-03-12T17:19:25.183Z,14.93
2023-03-12T17:21:51.800Z,11.43
2023-03-12T17:24:18.381Z,14.70
2023-03-12T17:26:45.046Z,12.80
2023-03-12T17:29:11.756Z,13.00
2023-03-12T17:31:39.719Z,12.27
2023-03-12T17:34:06.324Z,12.23
2023-03-12T17:36:36.196Z,13.17
2023-03-12T17:39:02.856Z,16.03
2023-03-12T17:41:31.013Z,9.87
2023-03-12T17:43:57.644Z,11.00
2023-03-12T17:46:24.328Z,12.30
2023-03-12T17:48:52.424Z,8.73
2023-03-12T17:51:18.991Z,14.97
2023-03-12T17:53:46.495Z,13.87
2023-03-12T17:56:13.472Z,9.20
2023-03-12T17:58:40.109Z,11.77
2023-03-12T18:01:06.931Z,12.77
2023-03-12T18:03:33.552Z,10.07
2023-03-12T18:06:01.535Z,10.00
2023-03-12T18:08:28.075Z,10.13
2023-03-12T18:10:54.837Z,10.40
2023-03-12T18:13:21.594Z,6.40
2023-03-12T18:15:52.198Z,6.70
2023-03-12T18:18:18.787Z,7.67
2023-03-12T18:20:47.650Z,11.03
2023-03-12T18:23:16.419Z,7.53
2023-03-12T18:25:43.236Z,6.70
2023-03-12T18:28:09.862Z,8.53
2023-03-12T18:30:36.502Z,6.73
2023-03-12T18:33:03.188Z,6.70
2023-03-12T18:35:29.899Z,4.90
2023-03-12T18:37:57.198Z,7.60
2023-03-12T18:40:25.568Z,5.57
2023-03-12T18:42:52.115Z,7.60
2023-03-12T18:45:18.669Z,4.90
2023-03-12T18:47:45.254Z,6.57
2023-03-12T18:50:12.522Z,4.97
2023-03-12T18:52:39.106Z,4.23
2023-03-12T18:55:06.082Z,8.40
2023-03-12T18:57:34.219Z,8.60
2023-03-12T19:00:00.820Z,7.03
2023-03-12T19:02:27.539Z,6.13
2023-03-12T19:04:56.164Z,5.63
2023-03-12T19:07:23.259Z,5.23
2023-03-12T19:09:49.848Z,7.30
2023-03-12T19:12:16.490Z,4.47
2023-03-12T19:14:44.437Z,6.13
2023-03-12T19:17:11.018Z,6.60
2023-03-12T19:19:37.638Z,7.07
2023-03-12T19:22:04.271Z,6.53
2023-03-12T19:24:30.857Z,5.97
2023-03-12T19:26:57.654Z,7.90
2023-03-12T19:29:25.255Z,10.90
2023-03-12T19:31:53.397Z,12.93
2023-03-12T19:34:20.279Z,12.37
2023-03-12T19:36:46.800Z,12.23
2023-03-12T19:39:21.232Z,9.27
2023-03-12T19:41:48.356Z,9.20
2023-03-12T19:44:14.972Z,8.57
2023-03-12T19:46:41.598Z,7.70
2023-03-12T19:49:09.573Z,6.30
2023-03-12T19:51:36.140Z,4.67
2023-03-12T19:54:02.746Z,13.50
2023-03-12T19:56:29.277Z,12.70
2023-03-12T19:58:55.865Z,8.20
2023-03-12T20:01:22.414Z,8.00
2023-03-12T20:03:48.975Z,6.57
2023-03-12T20:06:16.963Z,4.60
2023-03-12T20:08:43.522Z,5.20
2023-03-12T20:11:10.468Z,7.77
2023-03-12T20:13:37.170Z,7.97
2023-03-12T20:16:04.557Z,5.23
2023-03-12T20:18:31.099Z,9.53
2023-03-12T20:20:57.672Z,7.13
2023-03-12T20:23:25.715Z,6.87
2023-03-12T20:25:52.264Z,5.30
2023-03-12T20:28:18.873Z,6.20
2023-03-12T20:30:45.497Z,5.63
2023-03-12T20:33:12.078Z,5.90
2023-03-12T20:35:38.604Z,6.60
2023-03-12T20:38:05.276Z,8.63
2023-03-12T20:40:33.257Z,8.77
2023-03-12T20:42:59.880Z,12.47
2023-03-12T20:45:26.450Z,8.00
2023-03-12T20:47:53.545Z,8.13
2023-03-12T20:50:20.111Z,7.70
2023-03-12T20:52:46.659Z,8.27
2023-03-12T20:55:13.222Z,7.43
2023-03-12T20:57:41.126Z,9.10
2023-03-12T21:00:09.188Z,6.10
2023-03-12T21:02:35.789Z,6.63
2023-03-12T21:05:02.391Z,6.37
2023-03-12T21:07:28.970Z,5.53
2023-03-12T21:09:55.522Z,6.17
2023-03-12T21:12:22.096Z,6.83
2023-03-12T21:14:50.038Z,5.33
2023-03-12T21:17:16.599Z,4.97
2023-03-12T21:19:43.306Z,6.20
2023-03-12T21:22:10.262Z,6.63
2023-03-12T21:24:36.893Z,6.43
2023-03-12T21:27:03.744Z,5.47
2023-03-12T21:29:30.286Z,5.67
2023-03-12T21:31:58.245Z,9.07
2023-03-12T21:34:32.650Z,16.37
2023-03-12T21:36:59.184Z,8.80
2023-03-12T21:39:25.740Z,7.73
2023-03-12T21:41:52.276Z,6.57
2023-03-12T21:44:18.763Z,5.60
2023-03-12T21:46:45.363Z,5.40
2023-03-12T21:49:11.988Z,8.97
2023-03-12T21:51:39.883Z,8.80
2023-03-12T21:54:06.430Z,6.87
2023-03-12T21:56:32.944Z,8.87
2023-03-12T21:58:59.457Z,9.20
2023-03-12T22:01:26.174Z,7.70
2023-03-12T22:03:52.822Z,6.20
2023-03-12T22:06:19.818Z,7.23
2023-03-12T22:08:48.992Z,6.23
2023-03-12T22:11:15.567Z,5.80
2023-03-12T22:13:42.436Z,6.20
2023-03-12T22:16:09.365Z,5.53
2023-03-12T22:18:38.828Z,6.43
2023-03-12T22:21:06.106Z,5.97
2023-03-12T22:23:33.854Z,6.27
2023-03-12T22:26:02.465Z,7.60
2023-03-12T22:28:29.174Z,6.47
2023-03-12T22:30:59.400Z,7.80
2023-03-12T22:33:26.018Z,6.70
2023-03-12T22:35:52.963Z,4.90
2023-03-12T22:38:19.808Z,5.47
2023-03-12T22:40:46.328Z,5.70
2023-03-12T22:43:14.762Z,4.87
2023-03-12T22:45:41.702Z,7.13
2023-03-12T22:48:09.092Z,4.93
2023-03-12T22:50:35.631Z,4.87
2023-03-12T22:53:02.200Z,5.23
2023-03-12T22:55:28.731Z,4.30
2023-03-12T22:57:55.245Z,3.40
2023-03-12T23:00:23.422Z,3.67
2023-03-12T23:02:50.243Z,3.93
2023-03-12T23:05:17.015Z,6.30
2023-03-12T23:07:43.672Z,3.97
2023-03-12T23:10:10.862Z,6.40
2023-03-12T23:12:37.389Z,6.83
2023-03-12T23:15:04.329Z,5.30
2023-03-12T23:17:32.189Z,5.50
2023-03-12T23:19:58.709Z,8.97
2023-03-12T23:22:25.349Z,4.53
2023-03-12T23:24:51.878Z,4.83
2023-03-12T23:27:18.366Z,4.17
2023-03-12T23:29:44.878Z,4.60
2023-03-12T23:32:11.391Z,4.17
2023-03-12T23:34:39.255Z,4.77
2023-03-12T23:37:06.000Z,6.30
2023-03-12T23:39:35.368Z,7.03
2023-03-12T23:42:06.200Z,5.57
2023-03-12T23:44:32.820Z,5.23
2023-03-12T23:46:59.353Z,7.13
2023-03-12T23:49:25.893Z,5.50
2023-03-12T23:51:53.734Z,7.53
2023-03-12T23:54:20.229Z,5.70
2023-03-12T23:56:46.741Z,5.20
2023-03-12T23:59:13.275Z,5.90
